Colmar, Luxembourg
Current Conditions -  °F | °C
As of 9:50 PM on Sunday 21 Dec 2014 (Local Time) from ELLX Reporting Station
Broken Clouds Broken Clouds  
Wind Chill: 32°   Ceiling: 1200
Heat Index: 41°   Visibility: 6mi
Dew Point: 39°   Wind: 20mph
Humidity: 93%   Direction: 240°WSW
Pressure: 30.36"   Gusts: NA
Location:  49.81°N, 6.1°E
Report Text: ELLX 212050Z 24017KT 9999 BKN012 05/04 Q1028 NOSIG
Loading
Personal Weather Stations






























Interactive Weather Map New forecast layout! Learn more

10-Day Weather Forecast

Advertisements
Track Severe Weather on mobile